sensor_id;sensor_type;location;lat;lon;timestamp;pressure;altitude;pressure_sealevel;temperature;humidity
60820;BME280;46641;48.904;9.126;2023-04-06T00:02:01;98842.16;;;11.84;46.39
60820;BME280;46641;48.904;9.126;2023-04-06T00:06:52;98835.56;;;11.80;46.38
60820;BME280;46641;48.904;9.126;2023-04-06T00:11:42;98834.88;;;11.78;46.38
60820;BME280;46641;48.904;9.126;2023-04-06T00:16:33;98839.88;;;11.71;46.65
60820;BME280;46641;48.904;9.126;2023-04-06T00:21:23;98823.31;;;11.70;46.41
60820;BME280;46641;48.904;9.126;2023-04-06T00:26:13;98823.63;;;11.67;46.39
60820;BME280;46641;48.904;9.126;2023-04-06T00:31:04;98826.66;;;11.63;46.78
60820;BME280;46641;48.904;9.126;2023-04-06T00:35:54;98832.06;;;11.61;46.55
60820;BME280;46641;48.904;9.126;2023-04-06T00:40:44;98827.25;;;11.57;46.86
60820;BME280;46641;48.904;9.126;2023-04-06T00:45:35;98819.69;;;11.54;46.59
60820;BME280;46641;48.904;9.126;2023-04-06T00:50:25;98820.13;;;11.49;46.88
60820;BME280;46641;48.904;9.126;2023-04-06T00:55:17;98815.16;;;11.46;46.80
60820;BME280;46641;48.904;9.126;2023-04-06T01:00:07;98820.69;;;11.43;46.80
60820;BME280;46641;48.904;9.126;2023-04-06T01:04:58;98822.66;;;11.41;47.00
60820;BME280;46641;48.904;9.126;2023-04-06T01:09:48;98816.03;;;11.37;47.06
60820;BME280;46641;48.904;9.126;2023-04-06T01:14:38;98810.13;;;11.35;46.92
60820;BME280;46641;48.904;9.126;2023-04-06T01:19:29;98804.47;;;11.30;46.89
60820;BME280;46641;48.904;9.126;2023-04-06T01:24:20;98805.59;;;11.27;47.19
60820;BME280;46641;48.904;9.126;2023-04-06T01:29:11;98802.44;;;11.23;47.16
60820;BME280;46641;48.904;9.126;2023-04-06T01:34:01;98800.25;;;11.19;47.18
60820;BME280;46641;48.904;9.126;2023-04-06T01:38:51;98798.75;;;11.16;47.20
60820;BME280;46641;48.904;9.126;2023-04-06T01:43:42;98791.03;;;11.15;47.27
60820;BME280;46641;48.904;9.126;2023-04-06T01:48:32;98787.03;;;11.11;47.24
60820;BME280;46641;48.904;9.126;2023-04-06T01:53:22;98789.13;;;11.07;47.39
60820;BME280;46641;48.904;9.126;2023-04-06T01:58:13;98783.22;;;11.05;47.10
60820;BME280;46641;48.904;9.126;2023-04-06T02:03:03;98785.28;;;11.02;47.50
60820;BME280;46641;48.904;9.126;2023-04-06T02:07:54;98787.22;;;10.99;47.32
60820;BME280;46641;48.904;9.126;2023-04-06T02:12:44;98795.38;;;10.96;47.29
60820;BME280;46641;48.904;9.126;2023-04-06T02:17:34;98783.66;;;10.91;47.42
60820;BME280;46641;48.904;9.126;2023-04-06T02:22:25;98780.38;;;10.89;47.47
60820;BME280;46641;48.904;9.126;2023-04-06T02:27:15;98779.69;;;10.87;47.52
60820;BME280;46641;48.904;9.126;2023-04-06T02:32:05;98776.53;;;10.83;47.27
60820;BME280;46641;48.904;9.126;2023-04-06T02:36:56;98773.38;;;10.80;47.79
60820;BME280;46641;48.904;9.126;2023-04-06T02:41:46;98770.06;;;10.77;47.70
60820;BME280;46641;48.904;9.126;2023-04-06T02:46:37;98767.59;;;10.76;47.67
60820;BME280;46641;48.904;9.126;2023-04-06T02:51:27;98766.91;;;10.74;47.70
60820;BME280;46641;48.904;9.126;2023-04-06T02:56:18;98759.22;;;10.72;47.73
60820;BME280;46641;48.904;9.126;2023-04-06T03:01:08;98776.03;;;10.70;47.84
60820;BME280;46641;48.904;9.126;2023-04-06T03:05:58;98758.94;;;10.66;47.88
60820;BME280;46641;48.904;9.126;2023-04-06T03:10:50;98764.47;;;10.63;47.61
60820;BME280;46641;48.904;9.126;2023-04-06T03:15:40;98759.53;;;10.60;47.70
60820;BME280;46641;48.904;9.126;2023-04-06T03:20:30;98770.81;;;10.60;47.93
60820;BME280;46641;48.904;9.126;2023-04-06T03:25:21;98762.53;;;10.55;47.93
60820;BME280;46641;48.904;9.126;2023-04-06T03:30:11;98770.81;;;10.50;47.99
60820;BME280;46641;48.904;9.126;2023-04-06T03:35:02;98770.00;;;10.50;48.06
60820;BME280;46641;48.904;9.126;2023-04-06T03:39:52;98770.28;;;10.47;48.18
60820;BME280;46641;48.904;9.126;2023-04-06T03:44:42;98777.44;;;10.45;48.34
60820;BME280;46641;48.904;9.126;2023-04-06T03:49:33;98781.97;;;10.43;48.24
60820;BME280;46641;48.904;9.126;2023-04-06T03:54:23;98779.63;;;10.40;48.28
60820;BME280;46641;48.904;9.126;2023-04-06T03:59:13;98779.94;;;10.37;48.31
60820;BME280;46641;48.904;9.126;2023-04-06T04:04:04;98786.13;;;10.36;48.25
60820;BME280;46641;48.904;9.126;2023-04-06T04:08:54;98785.56;;;10.32;48.18
60820;BME280;46641;48.904;9.126;2023-04-06T04:13:44;98785.72;;;10.31;48.14
60820;BME280;46641;48.904;9.126;2023-04-06T04:18:35;98787.66;;;10.28;48.53
60820;BME280;46641;48.904;9.126;2023-04-06T04:23:26;98787.88;;;10.25;48.77
60820;BME280;46641;48.904;9.126;2023-04-06T04:28:16;98792.56;;;10.22;48.71
60820;BME280;46641;48.904;9.126;2023-04-06T04:33:07;98797.00;;;10.21;48.63
60820;BME280;46641;48.904;9.126;2023-04-06T04:37:57;98793.81;;;10.18;48.48
60820;BME280;46641;48.904;9.126;2023-04-06T04:42:48;98798.34;;;10.16;48.63
60820;BME280;46641;48.904;9.126;2023-04-06T04:47:40;98795.03;;;10.14;48.69
60820;BME280;46641;48.904;9.126;2023-04-06T04:52:31;98802.22;;;10.12;48.78
60820;BME280;46641;48.904;9.126;2023-04-06T04:57:21;98798.91;;;10.10;48.73
60820;BME280;46641;48.904;9.126;2023-04-06T05:02:11;98793.13;;;10.06;48.55
60820;BME280;46641;48.904;9.126;2023-04-06T05:07:04;98799.31;;;10.05;48.99
60820;BME280;46641;48.904;9.126;2023-04-06T05:11:54;98800.56;;;10.01;48.70
60820;BME280;46641;48.904;9.126;2023-04-06T05:16:45;98811.97;;;10.00;48.88
60820;BME280;46641;48.904;9.126;2023-04-06T05:21:35;98820.91;;;9.97;49.13
60820;BME280;46641;48.904;9.126;2023-04-06T05:26:26;98821.06;;;9.96;49.01
60820;BME280;46641;48.904;9.126;2023-04-06T05:31:16;98827.25;;;9.95;48.76
60820;BME280;46641;48.904;9.126;2023-04-06T05:36:06;98829.16;;;9.93;49.05
60820;BME280;46641;48.904;9.126;2023-04-06T05:40:57;98832.06;;;9.90;48.85
60820;BME280;46641;48.904;9.126;2023-04-06T05:45:47;98833.97;;;9.88;48.89
60820;BME280;46641;48.904;9.126;2023-04-06T05:50:37;98832.19;;;9.88;48.93
60820;BME280;46641;48.904;9.126;2023-04-06T05:55:28;98832.47;;;9.85;48.83
60820;BME280;46641;48.904;9.126;2023-04-06T06:00:18;98827.34;;;9.83;49.31
60820;BME280;46641;48.904;9.126;2023-04-06T06:05:09;98834.38;;;9.83;49.02
60820;BME280;46641;48.904;9.126;2023-04-06T06:10:00;98837.97;;;9.82;49.08
60820;BME280;46641;48.904;9.126;2023-04-06T06:14:50;98843.31;;;9.80;49.35
60820;BME280;46641;48.904;9.126;2023-04-06T06:19:41;98839.06;;;9.79;49.24
60820;BME280;46641;48.904;9.126;2023-04-06T06:24:31;98842.50;;;9.80;49.36
60820;BME280;46641;48.904;9.126;2023-04-06T06:29:22;98845.91;;;9.80;49.22
60820;BME280;46641;48.904;9.126;2023-04-06T06:34:13;98851.16;;;9.80;48.82
60820;BME280;46641;48.904;9.126;2023-04-06T06:39:04;98849.50;;;9.79;49.21
60820;BME280;46641;48.904;9.126;2023-04-06T06:43:54;98848.53;;;9.80;49.22
60820;BME280;46641;48.904;9.126;2023-04-06T06:48:44;98847.72;;;9.80;49.12
60820;BME280;46641;48.904;9.126;2023-04-06T06:53:35;98847.00;;;9.78;49.32
60820;BME280;46641;48.904;9.126;2023-04-06T06:58:25;98853.66;;;9.82;49.17
60820;BME280;46641;48.904;9.126;2023-04-06T07:03:15;98851.84;;;9.82;49.09
60820;BME280;46641;48.904;9.126;2023-04-06T07:08:06;98851.97;;;9.81;49.46
60820;BME280;46641;48.904;9.126;2023-04-06T07:12:56;98856.94;;;9.84;48.98
60820;BME280;46641;48.904;9.126;2023-04-06T07:17:46;98863.69;;;9.87;49.16
60820;BME280;46641;48.904;9.126;2023-04-06T07:22:38;98854.31;;;9.84;49.40
60820;BME280;46641;48.904;9.126;2023-04-06T07:27:28;98856.66;;;9.87;49.37
60820;BME280;46641;48.904;9.126;2023-04-06T07:32:18;98860.00;;;9.89;49.41
60820;BME280;46641;48.904;9.126;2023-04-06T07:37:09;98856.56;;;9.89;49.08
60820;BME280;46641;48.904;9.126;2023-04-06T07:41:59;98863.00;;;9.94;49.33
60820;BME280;46641;48.904;9.126;2023-04-06T07:46:50;98864.78;;;9.94;49.13
60820;BME280;46641;48.904;9.126;2023-04-06T07:51:40;98865.22;;;9.99;49.23
60820;BME280;46641;48.904;9.126;2023-04-06T07:56:31;98854.78;;;9.99;49.25
60820;BME280;46641;48.904;9.126;2023-04-06T08:01:21;98861.38;;;10.03;48.96
60820;BME280;46641;48.904;9.126;2023-04-06T08:06:11;98855.06;;;10.05;49.35
60820;BME280;46641;48.904;9.126;2023-04-06T08:11:02;98856.44;;;10.10;49.23
60820;BME280;46641;48.904;9.126;2023-04-06T08:15:52;98860.56;;;10.12;49.44
60820;BME280;46641;48.904;9.126;2023-04-06T08:20:43;98860.31;;;10.15;49.26
60820;BME280;46641;48.904;9.126;2023-04-06T08:25:35;98858.94;;;10.21;49.18
60820;BME280;46641;48.904;9.126;2023-04-06T08:30:26;98863.66;;;10.27;48.91
60820;BME280;46641;48.904;9.126;2023-04-06T08:35:16;98855.25;;;10.33;48.42
60820;BME280;46641;48.904;9.126;2023-04-06T08:40:07;98849.72;;;10.36;49.07
60820;BME280;46641;48.904;9.126;2023-04-06T08:44:57;98852.78;;;10.41;48.22
60820;BME280;46641;48.904;9.126;2023-04-06T08:49:48;98847.81;;;10.48;48.58
60820;BME280;46641;48.904;9.126;2023-04-06T08:54:39;98839.13;;;10.57;48.36
60820;BME280;46641;48.904;9.126;2023-04-06T08:59:30;98841.31;;;10.62;48.30
60820;BME280;46641;48.904;9.126;2023-04-06T09:04:20;98834.16;;;10.73;47.79
60820;BME280;46641;48.904;9.126;2023-04-06T09:09:11;98833.03;;;10.86;47.18
60820;BME280;46641;48.904;9.126;2023-04-06T09:14:01;98832.44;;;10.92;47.81
60820;BME280;46641;48.904;9.126;2023-04-06T09:18:52;98824.16;;;11.06;47.77
60820;BME280;46641;48.904;9.126;2023-04-06T09:23:42;98831.97;;;11.16;48.22
60820;BME280;46641;48.904;9.126;2023-04-06T09:33:46;98828.75;;;11.32;47.69
60820;BME280;46641;48.904;9.126;2023-04-06T09:38:38;98823.19;;;11.44;47.91
60820;BME280;46641;48.904;9.126;2023-04-06T09:43:29;98819.09;;;11.60;48.26
60820;BME280;46641;48.904;9.126;2023-04-06T09:48:20;98820.94;;;11.77;48.48
60820;BME280;46641;48.904;9.126;2023-04-06T09:53:12;98821.13;;;11.93;48.84
60820;BME280;46641;48.904;9.126;2023-04-06T09:58:07;98815.38;;;12.08;49.08
60820;BME280;46641;48.904;9.126;2023-04-06T10:03:06;98812.38;;;12.21;49.03
60820;BME280;46641;48.904;9.126;2023-04-06T10:08:05;98810.72;;;12.37;49.16
60820;BME280;46641;48.904;9.126;2023-04-06T10:12:58;98813.31;;;12.55;49.60
60820;BME280;46641;48.904;9.126;2023-04-06T10:17:48;98812.84;;;12.78;48.80
60820;BME280;46641;48.904;9.126;2023-04-06T10:27:47;98798.91;;;13.12;49.30
60820;BME280;46641;48.904;9.126;2023-04-06T10:32:48;98799.31;;;13.25;48.74
60820;BME280;46641;48.904;9.126;2023-04-06T10:38:01;98800.38;;;13.40;46.12
60820;BME280;46641;48.904;9.126;2023-04-06T10:42:55;98801.13;;;13.59;48.99
60820;BME280;46641;48.904;9.126;2023-04-06T10:47:46;98794.56;;;13.71;49.66
60820;BME280;46641;48.904;9.126;2023-04-06T10:52:37;98789.38;;;13.95;48.92
60820;BME280;46641;48.904;9.126;2023-04-06T10:57:28;98785.13;;;14.11;49.29
60820;BME280;46641;48.904;9.126;2023-04-06T11:02:19;98792.50;;;14.32;49.24
60820;BME280;46641;48.904;9.126;2023-04-06T11:07:11;98796.66;;;14.51;50.24
60820;BME280;46641;48.904;9.126;2023-04-06T11:12:25;98785.78;;;14.70;49.72
60820;BME280;46641;48.904;9.126;2023-04-06T11:17:16;98766.16;;;14.89;49.92
60820;BME280;46641;48.904;9.126;2023-04-06T11:22:07;98763.81;;;15.02;50.02
60820;BME280;46641;48.904;9.126;2023-04-06T11:26:58;98759.78;;;15.23;49.89
60820;BME280;46641;48.904;9.126;2023-04-06T11:31:53;98748.69;;;15.35;50.13
60820;BME280;46641;48.904;9.126;2023-04-06T11:36:45;98742.03;;;15.48;49.85
60820;BME280;46641;48.904;9.126;2023-04-06T11:41:36;98738.28;;;15.65;49.05
60820;BME280;46641;48.904;9.126;2023-04-06T11:46:27;98729.66;;;15.79;49.71
60820;BME280;46641;48.904;9.126;2023-04-06T11:51:23;98729.25;;;15.91;49.32
60820;BME280;46641;48.904;9.126;2023-04-06T11:56:27;98729.69;;;16.02;49.69
60820;BME280;46641;48.904;9.126;2023-04-06T12:01:18;98727.41;;;16.14;49.86
60820;BME280;46641;48.904;9.126;2023-04-06T12:06:08;98721.19;;;16.30;49.73
60820;BME280;46641;48.904;9.126;2023-04-06T12:10:59;98716.81;;;16.37;50.21
60820;BME280;46641;48.904;9.126;2023-04-06T12:15:49;98725.13;;;16.49;49.96
60820;BME280;46641;48.904;9.126;2023-04-06T12:20:39;98710.50;;;16.61;49.62
60820;BME280;46641;48.904;9.126;2023-04-06T12:25:30;98703.94;;;16.72;49.72
60820;BME280;46641;48.904;9.126;2023-04-06T12:30:20;98698.56;;;16.80;49.53
60820;BME280;46641;48.904;9.126;2023-04-06T12:35:11;98695.84;;;16.88;49.18
60820;BME280;46641;48.904;9.126;2023-04-06T12:40:03;98697.31;;;16.91;49.01
60820;BME280;46641;48.904;9.126;2023-04-06T12:44:54;98688.34;;;16.92;49.50
60820;BME280;46641;48.904;9.126;2023-04-06T12:49:44;98692.19;;;16.89;49.73
60820;BME280;46641;48.904;9.126;2023-04-06T12:54:35;98692.00;;;16.91;49.87
60820;BME280;46641;48.904;9.126;2023-04-06T12:59:25;98680.25;;;16.93;49.98
60820;BME280;46641;48.904;9.126;2023-04-06T13:04:16;98676.03;;;16.99;48.93
60820;BME280;46641;48.904;9.126;2023-04-06T13:09:06;98677.22;;;17.11;48.78
60820;BME280;46641;48.904;9.126;2023-04-06T13:13:57;98671.69;;;17.27;48.55
60820;BME280;46641;48.904;9.126;2023-04-06T13:18:48;98664.28;;;17.38;48.66
60820;BME280;46641;48.904;9.126;2023-04-06T13:23:39;98652.78;;;17.45;48.25
60820;BME280;46641;48.904;9.126;2023-04-06T13:28:31;98654.41;;;17.46;47.86
60820;BME280;46641;48.904;9.126;2023-04-06T13:33:22;98654.66;;;17.51;47.90
60820;BME280;46641;48.904;9.126;2023-04-06T13:38:13;98655.50;;;17.52;48.08
60820;BME280;46641;48.904;9.126;2023-04-06T13:43:04;98641.88;;;17.55;47.83
60820;BME280;46641;48.904;9.126;2023-04-06T13:47:54;98634.56;;;17.57;48.32
60820;BME280;46641;48.904;9.126;2023-04-06T13:52:44;98636.22;;;17.58;48.20
60820;BME280;46641;48.904;9.126;2023-04-06T13:57:35;98634.00;;;17.62;47.80
60820;BME280;46641;48.904;9.126;2023-04-06T14:02:26;98633.44;;;17.66;47.49
60820;BME280;46641;48.904;9.126;2023-04-06T14:07:17;98630.59;;;17.68;47.02
60820;BME280;46641;48.904;9.126;2023-04-06T14:12:07;98633.69;;;17.71;46.50
60820;BME280;46641;48.904;9.126;2023-04-06T14:16:57;98628.00;;;17.74;46.79
60820;BME280;46641;48.904;9.126;2023-04-06T14:21:48;98627.81;;;17.76;46.46
60820;BME280;46641;48.904;9.126;2023-04-06T14:26:41;98633.94;;;17.77;46.93
60820;BME280;46641;48.904;9.126;2023-04-06T14:31:33;98617.69;;;17.80;45.58
60820;BME280;46641;48.904;9.126;2023-04-06T14:36:23;98629.09;;;17.80;46.29
60820;BME280;46641;48.904;9.126;2023-04-06T14:41:18;98615.28;;;17.85;45.09
60820;BME280;46641;48.904;9.126;2023-04-06T14:46:09;98615.28;;;17.85;44.68
60820;BME280;46641;48.904;9.126;2023-04-06T14:50:59;98621.19;;;17.87;45.67
60820;BME280;46641;48.904;9.126;2023-04-06T14:55:50;98615.72;;;17.88;45.04
60820;BME280;46641;48.904;9.126;2023-04-06T15:00:41;98607.16;;;17.86;45.71
60820;BME280;46641;48.904;9.126;2023-04-06T15:05:34;98605.94;;;17.89;45.01
60820;BME280;46641;48.904;9.126;2023-04-06T15:10:24;98604.13;;;17.89;43.89
60820;BME280;46641;48.904;9.126;2023-04-06T15:15:14;98603.31;;;17.89;44.65
60820;BME280;46641;48.904;9.126;2023-04-06T15:20:05;98604.94;;;17.90;45.05
60820;BME280;46641;48.904;9.126;2023-04-06T15:24:56;98607.56;;;17.90;45.48
60820;BME280;46641;48.904;9.126;2023-04-06T15:29:46;98612.88;;;17.90;45.31
60820;BME280;46641;48.904;9.126;2023-04-06T15:34:36;98610.88;;;17.92;44.85
60820;BME280;46641;48.904;9.126;2023-04-06T15:39:27;98607.19;;;17.93;44.19
60820;BME280;46641;48.904;9.126;2023-04-06T15:44:18;98595.78;;;17.92;44.34
60820;BME280;46641;48.904;9.126;2023-04-06T15:49:09;98606.38;;;17.92;44.74
60820;BME280;46641;48.904;9.126;2023-04-06T15:53:59;98607.84;;;17.95;44.81
60820;BME280;46641;48.904;9.126;2023-04-06T15:58:49;98601.91;;;17.93;44.18
60820;BME280;46641;48.904;9.126;2023-04-06T16:03:40;98604.38;;;17.94;44.31
60820;BME280;46641;48.904;9.126;2023-04-06T16:08:30;98603.56;;;17.94;44.28
60820;BME280;46641;48.904;9.126;2023-04-06T16:13:20;98610.06;;;17.91;44.31
60820;BME280;46641;48.904;9.126;2023-04-06T16:18:11;98612.25;;;17.88;44.48
60820;BME280;46641;48.904;9.126;2023-04-06T16:23:01;98613.25;;;17.87;43.50
60820;BME280;46641;48.904;9.126;2023-04-06T16:27:51;98615.47;;;17.83;44.53
60820;BME280;46641;48.904;9.126;2023-04-06T16:32:41;98613.22;;;17.80;44.39
60820;BME280;46641;48.904;9.126;2023-04-06T16:37:33;98622.97;;;17.80;44.18
60820;BME280;46641;48.904;9.126;2023-04-06T16:42:25;98624.00;;;17.79;44.40
60820;BME280;46641;48.904;9.126;2023-04-06T16:47:15;98621.69;;;17.75;43.90
60820;BME280;46641;48.904;9.126;2023-04-06T16:52:06;98618.41;;;17.73;43.55
60820;BME280;46641;48.904;9.126;2023-04-06T16:56:56;98619.59;;;17.71;43.80
60820;BME280;46641;48.904;9.126;2023-04-06T17:01:47;98617.53;;;17.66;44.01
60820;BME280;46641;48.904;9.126;2023-04-06T17:06:37;98619.56;;;17.64;43.62
60820;BME280;46641;48.904;9.126;2023-04-06T17:11:27;98623.41;;;17.62;43.72
60820;BME280;46641;48.904;9.126;2023-04-06T17:16:18;98619.13;;;17.61;43.48
60820;BME280;46641;48.904;9.126;2023-04-06T17:21:09;98620.34;;;17.58;43.50
60820;BME280;46641;48.904;9.126;2023-04-06T17:26:04;98634.56;;;17.57;42.91
60820;BME280;46641;48.904;9.126;2023-04-06T17:30:56;98630.66;;;17.53;43.53
60820;BME280;46641;48.904;9.126;2023-04-06T17:35:47;98623.09;;;17.50;43.41
60820;BME280;46641;48.904;9.126;2023-04-06T17:40:37;98627.56;;;17.49;42.85
60820;BME280;46641;48.904;9.126;2023-04-06T17:45:27;98638.53;;;17.46;43.27
60820;BME280;46641;48.904;9.126;2023-04-06T17:50:17;98645.38;;;17.41;43.03
60820;BME280;46641;48.904;9.126;2023-04-06T17:55:08;98651.88;;;17.38;43.04
60820;BME280;46641;48.904;9.126;2023-04-06T17:59:58;98660.38;;;17.34;43.19
60820;BME280;46641;48.904;9.126;2023-04-06T18:04:52;98671.34;;;17.31;43.03
60820;BME280;46641;48.904;9.126;2023-04-06T18:09:42;98669.25;;;17.26;43.73
60820;BME280;46641;48.904;9.126;2023-04-06T18:14:32;98664.50;;;17.21;43.63
60820;BME280;46641;48.904;9.126;2023-04-06T18:19:23;98674.47;;;17.19;43.16
60820;BME280;46641;48.904;9.126;2023-04-06T18:24:13;98674.47;;;17.19;43.81
60820;BME280;46641;48.904;9.126;2023-04-06T18:29:03;98674.00;;;17.16;43.48
60820;BME280;46641;48.904;9.126;2023-04-06T18:33:53;98680.50;;;17.13;43.68
60820;BME280;46641;48.904;9.126;2023-04-06T18:38:46;98683.50;;;17.10;43.43
60820;BME280;46641;48.904;9.126;2023-04-06T18:43:37;98687.50;;;17.06;43.69
60820;BME280;46641;48.904;9.126;2023-04-06T18:48:27;98694.63;;;17.05;43.64
60820;BME280;46641;48.904;9.126;2023-04-06T18:53:17;98692.19;;;17.04;42.92
60820;BME280;46641;48.904;9.126;2023-04-06T18:58:07;98689.72;;;17.02;43.31
60820;BME280;46641;48.904;9.126;2023-04-06T19:02:58;98695.19;;;17.01;43.31
60820;BME280;46641;48.904;9.126;2023-04-06T19:07:48;98701.88;;;16.97;43.21
60820;BME280;46641;48.904;9.126;2023-04-06T19:12:41;98712.97;;;16.92;43.30
60820;BME280;46641;48.904;9.126;2023-04-06T19:17:31;98709.88;;;16.89;43.00
60820;BME280;46641;48.904;9.126;2023-04-06T19:22:22;98715.53;;;16.86;43.48
60820;BME280;46641;48.904;9.126;2023-04-06T19:27:12;98722.19;;;16.81;42.34
60820;BME280;46641;48.904;9.126;2023-04-06T19:32:03;98723.91;;;16.74;42.82
60820;BME280;46641;48.904;9.126;2023-04-06T19:36:56;98718.78;;;16.73;43.49
60820;BME280;46641;48.904;9.126;2023-04-06T19:41:46;98715.88;;;16.68;43.80
60820;BME280;46641;48.904;9.126;2023-04-06T19:46:36;98716.84;;;16.67;43.69
60820;BME280;46641;48.904;9.126;2023-04-06T19:51:31;98718.88;;;16.65;43.21
60820;BME280;46641;48.904;9.126;2023-04-06T19:56:24;98722.84;;;16.60;43.06
60820;BME280;46641;48.904;9.126;2023-04-06T20:01:15;98718.47;;;16.53;42.96
60820;BME280;46641;48.904;9.126;2023-04-06T20:06:05;98736.88;;;16.46;42.15
60820;BME280;46641;48.904;9.126;2023-04-06T20:11:04;98727.84;;;16.41;42.02
60820;BME280;46641;48.904;9.126;2023-04-06T20:15:56;98735.59;;;16.42;43.70
60820;BME280;46641;48.904;9.126;2023-04-06T20:20:47;98721.75;;;16.40;43.84
60820;BME280;46641;48.904;9.126;2023-04-06T20:25:38;98724.56;;;16.39;43.76
60820;BME280;46641;48.904;9.126;2023-04-06T20:30:29;98736.47;;;16.34;43.94
60820;BME280;46641;48.904;9.126;2023-04-06T20:35:19;98723.66;;;16.31;44.01
60820;BME280;46641;48.904;9.126;2023-04-06T20:40:10;98731.59;;;16.31;44.00
60820;BME280;46641;48.904;9.126;2023-04-06T20:45:01;98728.44;;;16.28;43.57
60820;BME280;46641;48.904;9.126;2023-04-06T20:49:52;98727.81;;;16.26;43.78
60820;BME280;46641;48.904;9.126;2023-04-06T20:54:42;98732.44;;;16.24;44.13
60820;BME280;46641;48.904;9.126;2023-04-06T20:59:33;98729.34;;;16.20;44.50
60820;BME280;46641;48.904;9.126;2023-04-06T21:04:23;98730.72;;;16.16;44.72
60820;BME280;46641;48.904;9.126;2023-04-06T21:09:14;98728.59;;;16.11;44.53
60820;BME280;46641;48.904;9.126;2023-04-06T21:14:04;98731.78;;;16.07;44.25
60820;BME280;46641;48.904;9.126;2023-04-06T21:18:55;98734.59;;;16.05;44.62
60820;BME280;46641;48.904;9.126;2023-04-06T21:23:45;98735.13;;;16.01;44.92
60820;BME280;46641;48.904;9.126;2023-04-06T21:28:36;98724.28;;;15.96;44.88
60820;BME280;46641;48.904;9.126;2023-04-06T21:33:26;98731.53;;;15.94;45.49
60820;BME280;46641;48.904;9.126;2023-04-06T21:38:16;98732.25;;;15.87;45.26
60820;BME280;46641;48.904;9.126;2023-04-06T21:43:06;98731.78;;;15.84;45.39
60820;BME280;46641;48.904;9.126;2023-04-06T21:47:57;98735.78;;;15.80;45.36
60820;BME280;46641;48.904;9.126;2023-04-06T21:52:48;98732.81;;;15.75;45.27
60820;BME280;46641;48.904;9.126;2023-04-06T21:57:38;98726.25;;;15.71;45.56
60820;BME280;46641;48.904;9.126;2023-04-06T22:02:28;98722.81;;;15.70;45.71
60820;BME280;46641;48.904;9.126;2023-04-06T22:07:19;98718.00;;;15.65;45.70
60820;BME280;46641;48.904;9.126;2023-04-06T22:12:09;98714.09;;;15.61;45.77
60820;BME280;46641;48.904;9.126;2023-04-06T22:16:59;98712.59;;;15.59;45.71
60820;BME280;46641;48.904;9.126;2023-04-06T22:21:50;98704.41;;;15.54;45.82
60820;BME280;46641;48.904;9.126;2023-04-06T22:26:40;98707.38;;;15.51;45.95
60820;BME280;46641;48.904;9.126;2023-04-06T22:31:30;98714.00;;;15.47;45.86
60820;BME280;46641;48.904;9.126;2023-04-06T22:36:20;98708.25;;;15.43;45.84
60820;BME280;46641;48.904;9.126;2023-04-06T22:41:11;98706.13;;;15.38;45.94
60820;BME280;46641;48.904;9.126;2023-04-06T22:46:01;98701.22;;;15.35;45.94
60820;BME280;46641;48.904;9.126;2023-04-06T22:50:51;98696.94;;;15.34;46.23
60820;BME280;46641;48.904;9.126;2023-04-06T22:55:41;98698.72;;;15.34;46.18
60820;BME280;46641;48.904;9.126;2023-04-06T23:00:32;98678.97;;;15.30;46.22
60820;BME280;46641;48.904;9.126;2023-04-06T23:05:22;98670.25;;;15.29;46.11
60820;BME280;46641;48.904;9.126;2023-04-06T23:10:13;98665.31;;;15.26;46.34
60820;BME280;46641;48.904;9.126;2023-04-06T23:15:04;98668.16;;;15.25;46.23
60820;BME280;46641;48.904;9.126;2023-04-06T23:19:54;98661.56;;;15.20;46.36
60820;BME280;46641;48.904;9.126;2023-04-06T23:24:45;98656.63;;;15.17;46.40
60820;BME280;46641;48.904;9.126;2023-04-06T23:29:35;98649.91;;;15.15;46.27
60820;BME280;46641;48.904;9.126;2023-04-06T23:34:25;98645.94;;;15.11;46.49
60820;BME280;46641;48.904;9.126;2023-04-06T23:39:16;98646.28;;;15.08;46.49
60820;BME280;46641;48.904;9.126;2023-04-06T23:44:06;98636.13;;;15.05;46.35
60820;BME280;46641;48.904;9.126;2023-04-06T23:48:56;98633.66;;;15.03;46.47
60820;BME280;46641;48.904;9.126;2023-04-06T23:53:46;98620.66;;;15.02;46.55
60820;BME280;46641;48.904;9.126;2023-04-06T23:58:37;98615.72;;;14.99;46.68
